Terminal Aerodrome Forecast
Issued by NWS Lake Charles, LA

Home | Current Version | Previous Version | Text Only | Print | Product List | Glossary On
Versions: 1 2 3 4 5 6 7 8 9 10 11 12 13
986
FTUS44 KLCH 252325
TAFAEX
TAF
KAEX 252325Z 2600/2624 17012KT P6SM BKN045
      TEMPO 2602/2606 BKN025
     FM260600 18013KT P6SM OVC015
      TEMPO 2609/2613 OVC007
     FM261500 18015G23KT P6SM OVC025
     FM261800 19019G29KT P6SM VCTS SCT025 BKN035CB PROB30 2621/2624
      2SM TSRA OVC008CB=

USA.gov is the U.S. government's official web portal to all federal, state and local government web resources and services.